sensor_id;sensor_type;location;lat;lon;timestamp;temperature;humidity
37240;DHT22;23130;48.760;9.178;2023-05-10T00:01:34;13.00;99.90
37240;DHT22;23130;48.760;9.178;2023-05-10T00:03:59;13.00;99.90
37240;DHT22;23130;48.760;9.178;2023-05-10T00:06:25;13.10;99.90
37240;DHT22;23130;48.760;9.178;2023-05-10T00:08:51;13.00;99.90
37240;DHT22;23130;48.760;9.178;2023-05-10T00:11:16;13.00;99.90
37240;DHT22;23130;48.760;9.178;2023-05-10T00:13:42;13.00;99.90
37240;DHT22;23130;48.760;9.178;2023-05-10T00:16:07;13.00;99.90
37240;DHT22;23130;48.760;9.178;2023-05-10T00:18:33;13.00;99.90
37240;DHT22;23130;48.760;9.178;2023-05-10T00:20:59;13.00;99.90
37240;DHT22;23130;48.760;9.178;2023-05-10T00:23:24;13.00;99.90
37240;DHT22;23130;48.760;9.178;2023-05-10T00:25:50;12.90;99.90
37240;DHT22;23130;48.760;9.178;2023-05-10T00:28:15;12.90;99.90
37240;DHT22;23130;48.760;9.178;2023-05-10T00:30:41;12.90;99.90
37240;DHT22;23130;48.760;9.178;2023-05-10T00:33:06;12.70;99.90
37240;DHT22;23130;48.760;9.178;2023-05-10T00:35:32;12.60;99.90
37240;DHT22;23130;48.760;9.178;2023-05-10T00:37:57;12.60;99.90
37240;DHT22;23130;48.760;9.178;2023-05-10T00:40:23;12.50;99.90
37240;DHT22;23130;48.760;9.178;2023-05-10T00:42:49;12.50;99.90
37240;DHT22;23130;48.760;9.178;2023-05-10T00:45:14;12.50;99.90
37240;DHT22;23130;48.760;9.178;2023-05-10T00:47:40;12.40;99.90
37240;DHT22;23130;48.760;9.178;2023-05-10T00:50:06;12.40;99.90
37240;DHT22;23130;48.760;9.178;2023-05-10T00:52:32;12.30;99.90
37240;DHT22;23130;48.760;9.178;2023-05-10T00:54:58;12.30;99.90
37240;DHT22;23130;48.760;9.178;2023-05-10T00:57:24;12.30;99.90
37240;DHT22;23130;48.760;9.178;2023-05-10T00:59:50;12.20;99.90
37240;DHT22;23130;48.760;9.178;2023-05-10T01:02:16;12.20;99.90
37240;DHT22;23130;48.760;9.178;2023-05-10T01:04:43;12.20;99.90
37240;DHT22;23130;48.760;9.178;2023-05-10T01:07:08;12.20;99.90
37240;DHT22;23130;48.760;9.178;2023-05-10T01:09:34;12.20;99.90
37240;DHT22;23130;48.760;9.178;2023-05-10T01:12:00;12.10;99.90
37240;DHT22;23130;48.760;9.178;2023-05-10T01:14:27;12.10;99.90
37240;DHT22;23130;48.760;9.178;2023-05-10T01:16:53;12.10;99.90
37240;DHT22;23130;48.760;9.178;2023-05-10T01:19:22;12.10;99.90
37240;DHT22;23130;48.760;9.178;2023-05-10T01:22:19;12.10;99.90
37240;DHT22;23130;48.760;9.178;2023-05-10T01:24:57;12.10;99.90
37240;DHT22;23130;48.760;9.178;2023-05-10T01:35:43;12.00;99.90
37240;DHT22;23130;48.760;9.178;2023-05-10T01:38:39;12.00;99.90
37240;DHT22;23130;48.760;9.178;2023-05-10T01:44:28;11.90;99.90
37240;DHT22;23130;48.760;9.178;2023-05-10T01:47:04;11.90;99.90
37240;DHT22;23130;48.760;9.178;2023-05-10T01:49:36;11.80;99.90
37240;DHT22;23130;48.760;9.178;2023-05-10T01:52:08;11.80;99.90
37240;DHT22;23130;48.760;9.178;2023-05-10T01:54:35;11.80;99.90
37240;DHT22;23130;48.760;9.178;2023-05-10T01:57:05;11.80;99.90
37240;DHT22;23130;48.760;9.178;2023-05-10T01:59:34;11.80;99.90
37240;DHT22;23130;48.760;9.178;2023-05-10T02:02:02;11.80;99.90
37240;DHT22;23130;48.760;9.178;2023-05-10T02:04:28;11.70;99.90
37240;DHT22;23130;48.760;9.178;2023-05-10T02:06:55;11.70;99.90
37240;DHT22;23130;48.760;9.178;2023-05-10T02:09:22;11.60;99.90
37240;DHT22;23130;48.760;9.178;2023-05-10T02:11:49;11.60;99.90
37240;DHT22;23130;48.760;9.178;2023-05-10T02:14:15;11.60;99.90
37240;DHT22;23130;48.760;9.178;2023-05-10T02:16:43;11.60;99.90
37240;DHT22;23130;48.760;9.178;2023-05-10T02:19:10;11.60;99.90
37240;DHT22;23130;48.760;9.178;2023-05-10T02:21:39;11.60;99.90
37240;DHT22;23130;48.760;9.178;2023-05-10T02:24:06;11.60;99.90
37240;DHT22;23130;48.760;9.178;2023-05-10T02:26:34;11.60;99.90
37240;DHT22;23130;48.760;9.178;2023-05-10T02:29:02;11.50;99.90
37240;DHT22;23130;48.760;9.178;2023-05-10T02:31:30;11.50;99.90
37240;DHT22;23130;48.760;9.178;2023-05-10T02:33:57;11.40;99.90
37240;DHT22;23130;48.760;9.178;2023-05-10T02:36:24;11.40;99.90
37240;DHT22;23130;48.760;9.178;2023-05-10T02:38:53;11.50;99.90
37240;DHT22;23130;48.760;9.178;2023-05-10T02:41:20;11.40;99.90
37240;DHT22;23130;48.760;9.178;2023-05-10T02:43:47;11.40;99.90
37240;DHT22;23130;48.760;9.178;2023-05-10T02:46:15;11.50;99.90
37240;DHT22;23130;48.760;9.178;2023-05-10T02:48:40;11.50;99.90
37240;DHT22;23130;48.760;9.178;2023-05-10T02:51:07;11.60;99.90
37240;DHT22;23130;48.760;9.178;2023-05-10T02:53:35;11.50;99.90
37240;DHT22;23130;48.760;9.178;2023-05-10T02:56:05;11.50;99.90
37240;DHT22;23130;48.760;9.178;2023-05-10T02:58:33;11.60;99.90
37240;DHT22;23130;48.760;9.178;2023-05-10T03:01:00;11.50;99.90
37240;DHT22;23130;48.760;9.178;2023-05-10T03:03:26;11.50;99.90
37240;DHT22;23130;48.760;9.178;2023-05-10T03:05:51;11.50;99.90
37240;DHT22;23130;48.760;9.178;2023-05-10T03:08:21;11.50;99.90
37240;DHT22;23130;48.760;9.178;2023-05-10T03:11:11;11.50;99.90
37240;DHT22;23130;48.760;9.178;2023-05-10T03:13:44;11.50;99.90
37240;DHT22;23130;48.760;9.178;2023-05-10T03:16:16;11.60;99.90
37240;DHT22;23130;48.760;9.178;2023-05-10T03:21:36;11.60;99.90
37240;DHT22;23130;48.760;9.178;2023-05-10T03:24:07;11.60;99.90
37240;DHT22;23130;48.760;9.178;2023-05-10T03:26:34;11.60;99.90
37240;DHT22;23130;48.760;9.178;2023-05-10T03:29:02;11.60;99.90
37240;DHT22;23130;48.760;9.178;2023-05-10T03:31:28;11.60;99.90
37240;DHT22;23130;48.760;9.178;2023-05-10T03:33:53;11.60;99.90
37240;DHT22;23130;48.760;9.178;2023-05-10T03:36:19;11.60;99.90
37240;DHT22;23130;48.760;9.178;2023-05-10T03:38:45;11.60;99.90
37240;DHT22;23130;48.760;9.178;2023-05-10T03:41:10;11.60;99.90
37240;DHT22;23130;48.760;9.178;2023-05-10T03:43:36;11.60;99.90
37240;DHT22;23130;48.760;9.178;2023-05-10T03:46:05;11.60;99.90
37240;DHT22;23130;48.760;9.178;2023-05-10T03:48:32;11.60;99.90
37240;DHT22;23130;48.760;9.178;2023-05-10T03:50:58;11.60;99.90
37240;DHT22;23130;48.760;9.178;2023-05-10T03:53:24;11.60;99.90
37240;DHT22;23130;48.760;9.178;2023-05-10T03:55:50;11.60;99.90
37240;DHT22;23130;48.760;9.178;2023-05-10T03:58:15;11.60;99.90
37240;DHT22;23130;48.760;9.178;2023-05-10T04:00:41;11.60;99.90
37240;DHT22;23130;48.760;9.178;2023-05-10T04:03:09;11.60;99.90
37240;DHT22;23130;48.760;9.178;2023-05-10T04:05:35;11.60;99.90
37240;DHT22;23130;48.760;9.178;2023-05-10T04:08:01;11.60;99.90
37240;DHT22;23130;48.760;9.178;2023-05-10T04:10:27;11.70;99.90
37240;DHT22;23130;48.760;9.178;2023-05-10T04:12:52;11.60;99.90
37240;DHT22;23130;48.760;9.178;2023-05-10T04:15:18;11.60;99.90
37240;DHT22;23130;48.760;9.178;2023-05-10T04:17:44;11.70;99.90
37240;DHT22;23130;48.760;9.178;2023-05-10T04:20:10;11.70;99.90
37240;DHT22;23130;48.760;9.178;2023-05-10T04:22:35;11.70;99.90
37240;DHT22;23130;48.760;9.178;2023-05-10T04:25:01;11.70;99.90
37240;DHT22;23130;48.760;9.178;2023-05-10T04:27:27;11.70;99.90
37240;DHT22;23130;48.760;9.178;2023-05-10T04:29:52;11.70;99.90
37240;DHT22;23130;48.760;9.178;2023-05-10T04:32:20;11.70;99.90
37240;DHT22;23130;48.760;9.178;2023-05-10T04:34:46;11.80;99.90
37240;DHT22;23130;48.760;9.178;2023-05-10T04:37:12;11.80;99.90
37240;DHT22;23130;48.760;9.178;2023-05-10T04:39:37;11.90;99.90
37240;DHT22;23130;48.760;9.178;2023-05-10T04:42:04;11.90;99.90
37240;DHT22;23130;48.760;9.178;2023-05-10T04:44:31;11.90;99.90
37240;DHT22;23130;48.760;9.178;2023-05-10T04:46:57;12.00;99.90
37240;DHT22;23130;48.760;9.178;2023-05-10T04:49:22;12.00;99.90
37240;DHT22;23130;48.760;9.178;2023-05-10T04:51:48;12.10;99.90
37240;DHT22;23130;48.760;9.178;2023-05-10T04:54:13;12.10;99.90
37240;DHT22;23130;48.760;9.178;2023-05-10T04:56:39;12.20;99.90
37240;DHT22;23130;48.760;9.178;2023-05-10T04:59:04;12.20;99.90
37240;DHT22;23130;48.760;9.178;2023-05-10T05:01:30;12.20;99.90
37240;DHT22;23130;48.760;9.178;2023-05-10T05:03:56;12.20;99.90
37240;DHT22;23130;48.760;9.178;2023-05-10T05:06:21;12.30;99.90
37240;DHT22;23130;48.760;9.178;2023-05-10T05:08:47;12.40;99.90
37240;DHT22;23130;48.760;9.178;2023-05-10T05:11:14;12.50;99.90
37240;DHT22;23130;48.760;9.178;2023-05-10T05:13:40;12.70;99.90
37240;DHT22;23130;48.760;9.178;2023-05-10T05:16:05;12.90;99.90
37240;DHT22;23130;48.760;9.178;2023-05-10T05:18:31;13.00;99.90
37240;DHT22;23130;48.760;9.178;2023-05-10T05:20:57;13.10;99.90
37240;DHT22;23130;48.760;9.178;2023-05-10T05:23:22;13.10;99.90
37240;DHT22;23130;48.760;9.178;2023-05-10T05:25:51;13.20;99.90
37240;DHT22;23130;48.760;9.178;2023-05-10T05:28:17;13.20;99.90
37240;DHT22;23130;48.760;9.178;2023-05-10T05:30:43;13.20;99.90
37240;DHT22;23130;48.760;9.178;2023-05-10T05:33:09;13.20;99.90
37240;DHT22;23130;48.760;9.178;2023-05-10T05:35:34;13.20;99.90
37240;DHT22;23130;48.760;9.178;2023-05-10T05:38:00;13.30;99.90
37240;DHT22;23130;48.760;9.178;2023-05-10T05:40:25;13.30;99.90
37240;DHT22;23130;48.760;9.178;2023-05-10T05:42:51;13.40;99.90
37240;DHT22;23130;48.760;9.178;2023-05-10T05:45:16;13.40;99.90
37240;DHT22;23130;48.760;9.178;2023-05-10T05:47:42;13.50;99.90
37240;DHT22;23130;48.760;9.178;2023-05-10T05:50:08;13.60;99.90
37240;DHT22;23130;48.760;9.178;2023-05-10T05:52:33;13.60;99.90
37240;DHT22;23130;48.760;9.178;2023-05-10T05:54:59;13.60;99.90
37240;DHT22;23130;48.760;9.178;2023-05-10T05:57:25;13.60;99.90
37240;DHT22;23130;48.760;9.178;2023-05-10T05:59:51;13.60;99.90
37240;DHT22;23130;48.760;9.178;2023-05-10T06:02:17;13.60;99.90
37240;DHT22;23130;48.760;9.178;2023-05-10T06:04:43;13.60;99.90
37240;DHT22;23130;48.760;9.178;2023-05-10T06:07:08;13.70;99.90
37240;DHT22;23130;48.760;9.178;2023-05-10T06:09:34;13.80;99.90
37240;DHT22;23130;48.760;9.178;2023-05-10T06:11:59;13.90;99.90
37240;DHT22;23130;48.760;9.178;2023-05-10T06:14:25;14.00;99.90
37240;DHT22;23130;48.760;9.178;2023-05-10T06:16:50;14.00;99.90
37240;DHT22;23130;48.760;9.178;2023-05-10T06:19:16;14.10;99.90
37240;DHT22;23130;48.760;9.178;2023-05-10T06:21:41;14.10;99.90
37240;DHT22;23130;48.760;9.178;2023-05-10T06:24:07;14.10;99.90
37240;DHT22;23130;48.760;9.178;2023-05-10T06:26:33;14.10;99.90
37240;DHT22;23130;48.760;9.178;2023-05-10T06:28:59;13.90;99.90
37240;DHT22;23130;48.760;9.178;2023-05-10T06:31:24;13.90;99.90
37240;DHT22;23130;48.760;9.178;2023-05-10T06:33:51;13.90;99.90
37240;DHT22;23130;48.760;9.178;2023-05-10T06:36:16;13.90;99.90
37240;DHT22;23130;48.760;9.178;2023-05-10T06:38:42;13.80;99.90
37240;DHT22;23130;48.760;9.178;2023-05-10T06:41:07;13.80;99.90
37240;DHT22;23130;48.760;9.178;2023-05-10T06:43:33;13.80;99.90
37240;DHT22;23130;48.760;9.178;2023-05-10T06:45:59;13.80;99.90
37240;DHT22;23130;48.760;9.178;2023-05-10T06:48:24;13.80;99.90
37240;DHT22;23130;48.760;9.178;2023-05-10T06:50:50;13.80;99.90
37240;DHT22;23130;48.760;9.178;2023-05-10T06:53:15;13.90;99.90
37240;DHT22;23130;48.760;9.178;2023-05-10T06:55:41;13.80;99.90
37240;DHT22;23130;48.760;9.178;2023-05-10T06:58:07;13.80;99.90
37240;DHT22;23130;48.760;9.178;2023-05-10T07:00:32;13.70;99.90
37240;DHT22;23130;48.760;9.178;2023-05-10T07:02:58;13.70;99.90
37240;DHT22;23130;48.760;9.178;2023-05-10T07:05:23;13.70;99.90
37240;DHT22;23130;48.760;9.178;2023-05-10T07:07:49;13.70;99.90
37240;DHT22;23130;48.760;9.178;2023-05-10T07:10:15;13.70;99.90
37240;DHT22;23130;48.760;9.178;2023-05-10T07:12:40;14.00;99.90
37240;DHT22;23130;48.760;9.178;2023-05-10T07:15:07;14.20;99.90
37240;DHT22;23130;48.760;9.178;2023-05-10T07:17:33;14.50;99.90
37240;DHT22;23130;48.760;9.178;2023-05-10T07:19:59;14.80;99.90
37240;DHT22;23130;48.760;9.178;2023-05-10T07:22:25;15.20;99.90
37240;DHT22;23130;48.760;9.178;2023-05-10T07:24:51;15.50;99.90
37240;DHT22;23130;48.760;9.178;2023-05-10T07:27:16;15.80;99.90
37240;DHT22;23130;48.760;9.178;2023-05-10T07:29:42;16.10;99.90
37240;DHT22;23130;48.760;9.178;2023-05-10T07:32:07;16.30;99.90
37240;DHT22;23130;48.760;9.178;2023-05-10T07:34:33;16.40;99.90
37240;DHT22;23130;48.760;9.178;2023-05-10T07:36:59;16.50;99.90
37240;DHT22;23130;48.760;9.178;2023-05-10T07:39:25;16.50;99.90
37240;DHT22;23130;48.760;9.178;2023-05-10T07:41:51;16.50;99.90
37240;DHT22;23130;48.760;9.178;2023-05-10T07:44:16;16.40;99.90
37240;DHT22;23130;48.760;9.178;2023-05-10T07:46:44;16.40;99.90
37240;DHT22;23130;48.760;9.178;2023-05-10T07:49:09;16.60;99.90
37240;DHT22;23130;48.760;9.178;2023-05-10T07:51:35;16.50;99.90
37240;DHT22;23130;48.760;9.178;2023-05-10T07:54:01;16.70;99.90
37240;DHT22;23130;48.760;9.178;2023-05-10T07:56:29;16.70;99.90
37240;DHT22;23130;48.760;9.178;2023-05-10T07:58:59;16.80;99.90
37240;DHT22;23130;48.760;9.178;2023-05-10T08:01:25;16.90;99.90
37240;DHT22;23130;48.760;9.178;2023-05-10T08:03:51;16.80;99.90
37240;DHT22;23130;48.760;9.178;2023-05-10T08:06:19;16.80;99.90
37240;DHT22;23130;48.760;9.178;2023-05-10T08:08:45;16.70;99.90
37240;DHT22;23130;48.760;9.178;2023-05-10T08:11:17;16.70;99.90
37240;DHT22;23130;48.760;9.178;2023-05-10T08:13:47;16.70;99.90
37240;DHT22;23130;48.760;9.178;2023-05-10T08:16:13;16.70;99.90
37240;DHT22;23130;48.760;9.178;2023-05-10T08:18:39;16.60;99.90
37240;DHT22;23130;48.760;9.178;2023-05-10T08:21:04;16.40;99.90
37240;DHT22;23130;48.760;9.178;2023-05-10T08:23:30;16.30;99.90
37240;DHT22;23130;48.760;9.178;2023-05-10T08:25:56;16.40;99.90
37240;DHT22;23130;48.760;9.178;2023-05-10T08:28:21;16.30;99.90
37240;DHT22;23130;48.760;9.178;2023-05-10T08:30:47;16.40;99.90
37240;DHT22;23130;48.760;9.178;2023-05-10T08:33:12;16.40;99.90
37240;DHT22;23130;48.760;9.178;2023-05-10T08:35:38;16.30;99.90
37240;DHT22;23130;48.760;9.178;2023-05-10T08:38:04;16.30;99.90
37240;DHT22;23130;48.760;9.178;2023-05-10T08:40:29;16.40;99.90
37240;DHT22;23130;48.760;9.178;2023-05-10T08:43:06;16.40;99.90
37240;DHT22;23130;48.760;9.178;2023-05-10T08:45:36;16.50;99.90
37240;DHT22;23130;48.760;9.178;2023-05-10T08:48:05;16.50;99.90
37240;DHT22;23130;48.760;9.178;2023-05-10T08:50:31;16.50;99.90
37240;DHT22;23130;48.760;9.178;2023-05-10T08:53:00;16.40;99.90
37240;DHT22;23130;48.760;9.178;2023-05-10T08:55:26;16.50;99.90
37240;DHT22;23130;48.760;9.178;2023-05-10T08:57:53;16.70;99.90
37240;DHT22;23130;48.760;9.178;2023-05-10T09:00:19;16.90;99.90
37240;DHT22;23130;48.760;9.178;2023-05-10T09:02:45;17.20;99.90
37240;DHT22;23130;48.760;9.178;2023-05-10T09:05:13;17.50;99.90
37240;DHT22;23130;48.760;9.178;2023-05-10T09:07:41;17.70;99.90
37240;DHT22;23130;48.760;9.178;2023-05-10T09:10:08;17.80;99.90
37240;DHT22;23130;48.760;9.178;2023-05-10T09:12:35;18.00;99.90
37240;DHT22;23130;48.760;9.178;2023-05-10T09:15:02;18.00;99.90
37240;DHT22;23130;48.760;9.178;2023-05-10T09:17:29;17.90;99.90
37240;DHT22;23130;48.760;9.178;2023-05-10T09:20:02;17.90;99.90
37240;DHT22;23130;48.760;9.178;2023-05-10T09:22:30;17.70;99.90
37240;DHT22;23130;48.760;9.178;2023-05-10T09:25:12;17.40;99.90
37240;DHT22;23130;48.760;9.178;2023-05-10T09:27:39;17.20;99.90
37240;DHT22;23130;48.760;9.178;2023-05-10T09:30:06;16.80;99.90
37240;DHT22;23130;48.760;9.178;2023-05-10T09:32:43;16.60;99.90
37240;DHT22;23130;48.760;9.178;2023-05-10T09:35:33;16.30;99.90
37240;DHT22;23130;48.760;9.178;2023-05-10T09:38:05;16.30;99.90
37240;DHT22;23130;48.760;9.178;2023-05-10T09:40:31;16.40;99.90
37240;DHT22;23130;48.760;9.178;2023-05-10T09:42:58;16.60;99.90
37240;DHT22;23130;48.760;9.178;2023-05-10T09:45:28;17.00;99.90
37240;DHT22;23130;48.760;9.178;2023-05-10T09:47:55;17.50;99.90
37240;DHT22;23130;48.760;9.178;2023-05-10T09:50:21;17.90;99.90
37240;DHT22;23130;48.760;9.178;2023-05-10T09:53:14;18.30;99.90
37240;DHT22;23130;48.760;9.178;2023-05-10T09:55:41;18.60;99.90
37240;DHT22;23130;48.760;9.178;2023-05-10T09:58:10;18.80;99.90
37240;DHT22;23130;48.760;9.178;2023-05-10T10:00:46;19.00;99.90
37240;DHT22;23130;48.760;9.178;2023-05-10T10:03:20;19.00;99.90
37240;DHT22;23130;48.760;9.178;2023-05-10T10:05:47;19.00;99.90
37240;DHT22;23130;48.760;9.178;2023-05-10T10:08:13;19.30;99.90
37240;DHT22;23130;48.760;9.178;2023-05-10T10:10:40;19.50;99.90
37240;DHT22;23130;48.760;9.178;2023-05-10T10:13:06;19.60;99.90
37240;DHT22;23130;48.760;9.178;2023-05-10T10:15:33;19.60;99.90
37240;DHT22;23130;48.760;9.178;2023-05-10T10:18:00;19.70;99.90
37240;DHT22;23130;48.760;9.178;2023-05-10T10:20:26;19.60;99.90
37240;DHT22;23130;48.760;9.178;2023-05-10T10:22:52;19.70;99.90
37240;DHT22;23130;48.760;9.178;2023-05-10T10:25:19;19.70;99.90
37240;DHT22;23130;48.760;9.178;2023-05-10T10:35:52;19.70;99.90
37240;DHT22;23130;48.760;9.178;2023-05-10T10:38:18;19.70;99.90
37240;DHT22;23130;48.760;9.178;2023-05-10T10:40:43;19.70;99.90
37240;DHT22;23130;48.760;9.178;2023-05-10T10:43:26;19.40;99.90
37240;DHT22;23130;48.760;9.178;2023-05-10T10:46:14;19.50;99.90
37240;DHT22;23130;48.760;9.178;2023-05-10T10:48:41;19.20;99.90
37240;DHT22;23130;48.760;9.178;2023-05-10T10:51:07;18.90;99.90
37240;DHT22;23130;48.760;9.178;2023-05-10T10:53:33;18.50;99.90
37240;DHT22;23130;48.760;9.178;2023-05-10T10:56:12;18.10;99.90
37240;DHT22;23130;48.760;9.178;2023-05-10T10:58:40;17.50;99.90
37240;DHT22;23130;48.760;9.178;2023-05-10T11:01:14;16.80;99.90
37240;DHT22;23130;48.760;9.178;2023-05-10T11:03:40;16.50;99.90
37240;DHT22;23130;48.760;9.178;2023-05-10T11:06:06;16.20;99.90
37240;DHT22;23130;48.760;9.178;2023-05-10T11:08:39;16.00;99.90
37240;DHT22;23130;48.760;9.178;2023-05-10T11:11:07;16.00;99.90
37240;DHT22;23130;48.760;9.178;2023-05-10T11:19:07;15.70;99.90
37240;DHT22;23130;48.760;9.178;2023-05-10T11:24:14;15.90;99.90
37240;DHT22;23130;48.760;9.178;2023-05-10T11:26:40;15.90;99.90
37240;DHT22;23130;48.760;9.178;2023-05-10T11:29:07;15.90;99.90
37240;DHT22;23130;48.760;9.178;2023-05-10T11:31:32;16.30;99.90
37240;DHT22;23130;48.760;9.178;2023-05-10T11:33:59;16.80;99.90
37240;DHT22;23130;48.760;9.178;2023-05-10T11:36:28;17.30;99.90
37240;DHT22;23130;48.760;9.178;2023-05-10T11:38:55;17.60;99.90
37240;DHT22;23130;48.760;9.178;2023-05-10T11:41:22;17.90;99.90
37240;DHT22;23130;48.760;9.178;2023-05-10T11:43:50;18.00;99.90
37240;DHT22;23130;48.760;9.178;2023-05-10T11:46:19;18.00;99.90
37240;DHT22;23130;48.760;9.178;2023-05-10T11:48:47;17.80;99.90
37240;DHT22;23130;48.760;9.178;2023-05-10T11:51:14;17.70;99.90
37240;DHT22;23130;48.760;9.178;2023-05-10T11:53:40;17.50;99.90
37240;DHT22;23130;48.760;9.178;2023-05-10T11:56:06;17.50;99.90
37240;DHT22;23130;48.760;9.178;2023-05-10T11:58:33;17.10;99.90
37240;DHT22;23130;48.760;9.178;2023-05-10T12:01:01;17.00;99.90
37240;DHT22;23130;48.760;9.178;2023-05-10T12:03:28;16.70;99.90
37240;DHT22;23130;48.760;9.178;2023-05-10T12:05:55;16.50;99.90
37240;DHT22;23130;48.760;9.178;2023-05-10T12:08:26;16.50;99.90
37240;DHT22;23130;48.760;9.178;2023-05-10T12:10:53;16.50;99.90
37240;DHT22;23130;48.760;9.178;2023-05-10T12:13:20;16.60;99.90
37240;DHT22;23130;48.760;9.178;2023-05-10T12:15:46;16.90;99.90
37240;DHT22;23130;48.760;9.178;2023-05-10T12:18:13;17.20;99.90
37240;DHT22;23130;48.760;9.178;2023-05-10T12:20:40;17.20;99.90
37240;DHT22;23130;48.760;9.178;2023-05-10T12:23:07;17.40;99.90
37240;DHT22;23130;48.760;9.178;2023-05-10T12:25:34;17.50;99.90
37240;DHT22;23130;48.760;9.178;2023-05-10T12:28:03;17.90;99.90
37240;DHT22;23130;48.760;9.178;2023-05-10T12:30:31;18.00;99.90
37240;DHT22;23130;48.760;9.178;2023-05-10T12:33:12;18.10;99.90
37240;DHT22;23130;48.760;9.178;2023-05-10T12:35:52;18.20;99.90
37240;DHT22;23130;48.760;9.178;2023-05-10T12:38:38;18.20;99.90
37240;DHT22;23130;48.760;9.178;2023-05-10T12:41:15;18.30;99.90
37240;DHT22;23130;48.760;9.178;2023-05-10T12:43:41;18.40;99.90
37240;DHT22;23130;48.760;9.178;2023-05-10T12:46:12;18.40;99.90
37240;DHT22;23130;48.760;9.178;2023-05-10T12:48:39;18.30;99.90
37240;DHT22;23130;48.760;9.178;2023-05-10T12:51:05;18.30;99.90
37240;DHT22;23130;48.760;9.178;2023-05-10T12:53:33;18.00;99.90
37240;DHT22;23130;48.760;9.178;2023-05-10T12:55:59;17.90;99.90
37240;DHT22;23130;48.760;9.178;2023-05-10T12:58:25;17.70;99.90
37240;DHT22;23130;48.760;9.178;2023-05-10T13:00:50;17.40;99.90
37240;DHT22;23130;48.760;9.178;2023-05-10T13:03:17;17.10;99.90
37240;DHT22;23130;48.760;9.178;2023-05-10T13:05:43;16.90;99.90
37240;DHT22;23130;48.760;9.178;2023-05-10T13:08:08;16.70;99.90
37240;DHT22;23130;48.760;9.178;2023-05-10T13:10:34;16.40;99.90
37240;DHT22;23130;48.760;9.178;2023-05-10T13:12:59;16.40;99.90
37240;DHT22;23130;48.760;9.178;2023-05-10T13:15:25;16.30;99.90
37240;DHT22;23130;48.760;9.178;2023-05-10T13:17:51;16.20;99.90
37240;DHT22;23130;48.760;9.178;2023-05-10T13:20:17;16.30;99.90
37240;DHT22;23130;48.760;9.178;2023-05-10T13:22:43;16.50;99.90
37240;DHT22;23130;48.760;9.178;2023-05-10T13:25:10;16.90;99.90
37240;DHT22;23130;48.760;9.178;2023-05-10T13:27:36;17.10;99.90
37240;DHT22;23130;48.760;9.178;2023-05-10T13:30:02;17.40;99.90
37240;DHT22;23130;48.760;9.178;2023-05-10T13:32:28;17.80;99.90
37240;DHT22;23130;48.760;9.178;2023-05-10T13:34:55;18.10;99.90
37240;DHT22;23130;48.760;9.178;2023-05-10T13:37:20;18.30;99.90
37240;DHT22;23130;48.760;9.178;2023-05-10T13:39:46;18.40;99.90
37240;DHT22;23130;48.760;9.178;2023-05-10T13:42:12;18.60;99.90
37240;DHT22;23130;48.760;9.178;2023-05-10T13:44:37;18.80;99.90
37240;DHT22;23130;48.760;9.178;2023-05-10T13:47:04;18.80;99.90
37240;DHT22;23130;48.760;9.178;2023-05-10T13:49:29;18.80;99.90
37240;DHT22;23130;48.760;9.178;2023-05-10T13:51:55;18.70;99.90
37240;DHT22;23130;48.760;9.178;2023-05-10T13:54:21;18.30;99.90
37240;DHT22;23130;48.760;9.178;2023-05-10T13:56:47;18.20;99.90
37240;DHT22;23130;48.760;9.178;2023-05-10T13:59:14;18.10;99.90
37240;DHT22;23130;48.760;9.178;2023-05-10T14:01:40;17.90;99.90
37240;DHT22;23130;48.760;9.178;2023-05-10T14:04:06;18.10;99.90
37240;DHT22;23130;48.760;9.178;2023-05-10T14:06:38;18.10;99.90
37240;DHT22;23130;48.760;9.178;2023-05-10T14:09:03;18.30;99.90
37240;DHT22;23130;48.760;9.178;2023-05-10T14:11:29;18.20;99.90
37240;DHT22;23130;48.760;9.178;2023-05-10T14:13:55;18.40;99.90
37240;DHT22;23130;48.760;9.178;2023-05-10T14:16:21;18.60;99.90
37240;DHT22;23130;48.760;9.178;2023-05-10T14:18:46;18.50;99.90
37240;DHT22;23130;48.760;9.178;2023-05-10T14:21:12;18.70;99.90
37240;DHT22;23130;48.760;9.178;2023-05-10T14:23:38;19.00;99.90
37240;DHT22;23130;48.760;9.178;2023-05-10T14:26:04;19.00;99.90
37240;DHT22;23130;48.760;9.178;2023-05-10T14:28:29;18.90;99.90
37240;DHT22;23130;48.760;9.178;2023-05-10T14:30:55;18.90;99.90
37240;DHT22;23130;48.760;9.178;2023-05-10T14:33:20;18.70;99.90
37240;DHT22;23130;48.760;9.178;2023-05-10T14:35:47;18.60;99.90
37240;DHT22;23130;48.760;9.178;2023-05-10T14:38:13;18.50;99.90
37240;DHT22;23130;48.760;9.178;2023-05-10T14:40:39;18.50;99.90
37240;DHT22;23130;48.760;9.178;2023-05-10T14:43:04;18.50;99.90
37240;DHT22;23130;48.760;9.178;2023-05-10T14:45:30;18.60;99.90
37240;DHT22;23130;48.760;9.178;2023-05-10T14:47:56;18.50;99.90
37240;DHT22;23130;48.760;9.178;2023-05-10T14:50:22;18.60;99.90
37240;DHT22;23130;48.760;9.178;2023-05-10T14:52:48;18.70;99.90
37240;DHT22;23130;48.760;9.178;2023-05-10T14:55:14;18.70;99.90
37240;DHT22;23130;48.760;9.178;2023-05-10T14:57:40;18.70;99.90
37240;DHT22;23130;48.760;9.178;2023-05-10T15:00:07;18.80;99.90
37240;DHT22;23130;48.760;9.178;2023-05-10T15:02:33;18.60;99.90
37240;DHT22;23130;48.760;9.178;2023-05-10T15:04:59;18.50;99.90
37240;DHT22;23130;48.760;9.178;2023-05-10T15:07:24;18.60;99.90
37240;DHT22;23130;48.760;9.178;2023-05-10T15:09:50;18.50;99.90
37240;DHT22;23130;48.760;9.178;2023-05-10T15:12:17;18.50;99.90
37240;DHT22;23130;48.760;9.178;2023-05-10T15:14:43;18.70;99.90
37240;DHT22;23130;48.760;9.178;2023-05-10T15:17:08;18.60;99.90
37240;DHT22;23130;48.760;9.178;2023-05-10T15:19:34;18.60;99.90
37240;DHT22;23130;48.760;9.178;2023-05-10T15:21:59;18.60;99.90
37240;DHT22;23130;48.760;9.178;2023-05-10T15:24:25;18.60;99.90
37240;DHT22;23130;48.760;9.178;2023-05-10T15:26:51;18.70;99.90
37240;DHT22;23130;48.760;9.178;2023-05-10T15:29:16;18.60;99.90
37240;DHT22;23130;48.760;9.178;2023-05-10T15:31:49;18.60;99.90
37240;DHT22;23130;48.760;9.178;2023-05-10T15:34:16;18.50;99.90
37240;DHT22;23130;48.760;9.178;2023-05-10T15:36:41;18.50;99.90
37240;DHT22;23130;48.760;9.178;2023-05-10T15:39:07;18.50;99.90
37240;DHT22;23130;48.760;9.178;2023-05-10T15:41:35;18.40;99.90
37240;DHT22;23130;48.760;9.178;2023-05-10T15:44:00;18.20;99.90
37240;DHT22;23130;48.760;9.178;2023-05-10T15:46:27;18.00;99.90
37240;DHT22;23130;48.760;9.178;2023-05-10T15:48:53;18.10;99.90
37240;DHT22;23130;48.760;9.178;2023-05-10T15:51:18;18.20;99.90
37240;DHT22;23130;48.760;9.178;2023-05-10T15:53:45;18.20;99.90
37240;DHT22;23130;48.760;9.178;2023-05-10T15:56:10;18.20;99.90
37240;DHT22;23130;48.760;9.178;2023-05-10T15:58:37;18.20;99.90
37240;DHT22;23130;48.760;9.178;2023-05-10T16:01:03;18.10;99.90